sensor_id;sensor_type;location;lat;lon;timestamp;P1;durP1;ratioP1;P2;durP2;ratioP2
76210;SDS011;65003;49.518;11.280;2023-10-08T00:01:51;7.77;;;4.50;;
76210;SDS011;65003;49.518;11.280;2023-10-08T00:04:17;7.37;;;3.87;;
76210;SDS011;65003;49.518;11.280;2023-10-08T00:06:45;6.13;;;3.47;;
76210;SDS011;65003;49.518;11.280;2023-10-08T00:09:11;7.23;;;3.30;;
76210;SDS011;65003;49.518;11.280;2023-10-08T00:11:38;8.30;;;3.50;;
76210;SDS011;65003;49.518;11.280;2023-10-08T00:14:04;6.00;;;3.40;;
76210;SDS011;65003;49.518;11.280;2023-10-08T00:16:31;7.37;;;3.13;;
76210;SDS011;65003;49.518;11.280;2023-10-08T00:18:58;8.23;;;3.50;;
76210;SDS011;65003;49.518;11.280;2023-10-08T00:21:24;5.23;;;3.50;;
76210;SDS011;65003;49.518;11.280;2023-10-08T00:23:52;6.13;;;3.40;;
76210;SDS011;65003;49.518;11.280;2023-10-08T00:26:19;5.67;;;3.40;;
76210;SDS011;65003;49.518;11.280;2023-10-08T00:28:45;6.30;;;3.40;;
76210;SDS011;65003;49.518;11.280;2023-10-08T00:31:12;7.33;;;3.70;;
76210;SDS011;65003;49.518;11.280;2023-10-08T00:33:39;5.20;;;3.60;;
76210;SDS011;65003;49.518;11.280;2023-10-08T00:36:05;4.70;;;3.20;;
76210;SDS011;65003;49.518;11.280;2023-10-08T00:38:47;5.57;;;3.53;;
76210;SDS011;65003;49.518;11.280;2023-10-08T00:41:14;4.97;;;3.53;;
76210;SDS011;65003;49.518;11.280;2023-10-08T00:43:41;6.17;;;3.23;;
76210;SDS011;65003;49.518;11.280;2023-10-08T00:46:07;6.43;;;4.30;;
76210;SDS011;65003;49.518;11.280;2023-10-08T00:48:49;6.50;;;3.50;;
76210;SDS011;65003;49.518;11.280;2023-10-08T00:51:16;6.47;;;3.47;;
76210;SDS011;65003;49.518;11.280;2023-10-08T00:54:00;5.47;;;3.70;;
76210;SDS011;65003;49.518;11.280;2023-10-08T00:56:27;10.07;;;3.50;;
76210;SDS011;65003;49.518;11.280;2023-10-08T00:58:53;7.47;;;3.90;;
76210;SDS011;65003;49.518;11.280;2023-10-08T01:01:19;6.77;;;4.00;;
76210;SDS011;65003;49.518;11.280;2023-10-08T01:03:46;6.20;;;4.10;;
76210;SDS011;65003;49.518;11.280;2023-10-08T01:06:13;7.30;;;3.37;;
76210;SDS011;65003;49.518;11.280;2023-10-08T01:08:39;8.40;;;3.90;;
76210;SDS011;65003;49.518;11.280;2023-10-08T01:11:18;5.80;;;3.13;;
76210;SDS011;65003;49.518;11.280;2023-10-08T01:13:46;5.03;;;3.50;;
76210;SDS011;65003;49.518;11.280;2023-10-08T01:16:12;7.80;;;3.90;;
76210;SDS011;65003;49.518;11.280;2023-10-08T01:18:39;5.47;;;3.40;;
76210;SDS011;65003;49.518;11.280;2023-10-08T01:21:06;5.47;;;3.47;;
76210;SDS011;65003;49.518;11.280;2023-10-08T01:23:32;7.87;;;3.80;;
76210;SDS011;65003;49.518;11.280;2023-10-08T01:25:59;5.13;;;3.70;;
76210;SDS011;65003;49.518;11.280;2023-10-08T01:28:42;6.10;;;3.43;;
76210;SDS011;65003;49.518;11.280;2023-10-08T01:31:09;5.33;;;3.27;;
76210;SDS011;65003;49.518;11.280;2023-10-08T01:33:36;7.05;;;2.98;;
76210;SDS011;65003;49.518;11.280;2023-10-08T01:36:03;6.73;;;4.00;;
76210;SDS011;65003;49.518;11.280;2023-10-08T01:38:30;8.07;;;3.30;;
76210;SDS011;65003;49.518;11.280;2023-10-08T01:40:57;4.07;;;3.40;;
76210;SDS011;65003;49.518;11.280;2023-10-08T01:43:23;6.23;;;3.40;;
76210;SDS011;65003;49.518;11.280;2023-10-08T01:45:50;7.80;;;4.03;;
76210;SDS011;65003;49.518;11.280;2023-10-08T01:48:17;7.20;;;3.67;;
76210;SDS011;65003;49.518;11.280;2023-10-08T01:50:44;4.83;;;3.20;;
76210;SDS011;65003;49.518;11.280;2023-10-08T01:53:11;6.23;;;3.23;;
76210;SDS011;65003;49.518;11.280;2023-10-08T01:55:37;5.93;;;3.50;;
76210;SDS011;65003;49.518;11.280;2023-10-08T01:58:05;7.37;;;3.60;;
76210;SDS011;65003;49.518;11.280;2023-10-08T02:00:31;6.07;;;3.67;;
76210;SDS011;65003;49.518;11.280;2023-10-08T02:02:58;7.77;;;4.00;;
76210;SDS011;65003;49.518;11.280;2023-10-08T02:05:24;4.97;;;3.53;;
76210;SDS011;65003;49.518;11.280;2023-10-08T02:07:51;8.20;;;4.20;;
76210;SDS011;65003;49.518;11.280;2023-10-08T02:10:18;5.80;;;3.20;;
76210;SDS011;65003;49.518;11.280;2023-10-08T02:12:44;4.20;;;3.00;;
76210;SDS011;65003;49.518;11.280;2023-10-08T02:15:11;5.57;;;3.63;;
76210;SDS011;65003;49.518;11.280;2023-10-08T02:17:37;5.97;;;3.30;;
76210;SDS011;65003;49.518;11.280;2023-10-08T02:20:04;5.63;;;3.23;;
76210;SDS011;65003;49.518;11.280;2023-10-08T02:22:32;5.00;;;3.43;;
76210;SDS011;65003;49.518;11.280;2023-10-08T02:24:59;6.73;;;3.90;;
76210;SDS011;65003;49.518;11.280;2023-10-08T02:27:28;5.90;;;3.50;;
76210;SDS011;65003;49.518;11.280;2023-10-08T02:29:54;5.93;;;3.40;;
76210;SDS011;65003;49.518;11.280;2023-10-08T02:32:21;6.27;;;3.53;;
76210;SDS011;65003;49.518;11.280;2023-10-08T02:34:48;7.30;;;3.70;;
76210;SDS011;65003;49.518;11.280;2023-10-08T02:37:15;6.27;;;3.40;;
76210;SDS011;65003;49.518;11.280;2023-10-08T02:39:41;4.83;;;3.37;;
76210;SDS011;65003;49.518;11.280;2023-10-08T02:42:08;7.10;;;3.33;;
76210;SDS011;65003;49.518;11.280;2023-10-08T02:44:35;6.57;;;3.23;;
76210;SDS011;65003;49.518;11.280;2023-10-08T02:47:03;5.70;;;3.43;;
76210;SDS011;65003;49.518;11.280;2023-10-08T02:49:29;7.87;;;3.63;;
76210;SDS011;65003;49.518;11.280;2023-10-08T02:51:56;9.97;;;4.53;;
76210;SDS011;65003;49.518;11.280;2023-10-08T02:54:23;6.10;;;3.70;;
76210;SDS011;65003;49.518;11.280;2023-10-08T02:56:50;6.37;;;3.13;;
76210;SDS011;65003;49.518;11.280;2023-10-08T02:59:18;7.17;;;4.00;;
76210;SDS011;65003;49.518;11.280;2023-10-08T03:01:44;4.77;;;2.93;;
76210;SDS011;65003;49.518;11.280;2023-10-08T03:04:11;5.30;;;2.83;;
76210;SDS011;65003;49.518;11.280;2023-10-08T03:06:40;5.33;;;3.10;;
76210;SDS011;65003;49.518;11.280;2023-10-08T03:09:07;4.60;;;2.93;;
76210;SDS011;65003;49.518;11.280;2023-10-08T03:11:33;7.23;;;3.10;;
76210;SDS011;65003;49.518;11.280;2023-10-08T03:14:00;4.90;;;3.13;;
76210;SDS011;65003;49.518;11.280;2023-10-08T03:16:27;5.77;;;2.80;;
76210;SDS011;65003;49.518;11.280;2023-10-08T03:18:53;6.33;;;3.10;;
76210;SDS011;65003;49.518;11.280;2023-10-08T03:21:20;5.83;;;3.10;;
76210;SDS011;65003;49.518;11.280;2023-10-08T03:23:47;4.87;;;3.03;;
76210;SDS011;65003;49.518;11.280;2023-10-08T03:26:13;5.67;;;2.97;;
76210;SDS011;65003;49.518;11.280;2023-10-08T03:29:01;7.13;;;3.50;;
76210;SDS011;65003;49.518;11.280;2023-10-08T03:31:27;5.00;;;3.10;;
76210;SDS011;65003;49.518;11.280;2023-10-08T03:33:59;6.77;;;3.10;;
76210;SDS011;65003;49.518;11.280;2023-10-08T03:36:26;7.07;;;3.67;;
76210;SDS011;65003;49.518;11.280;2023-10-08T03:38:53;6.80;;;3.20;;
76210;SDS011;65003;49.518;11.280;2023-10-08T03:41:21;7.93;;;3.50;;
76210;SDS011;65003;49.518;11.280;2023-10-08T03:43:47;6.77;;;3.13;;
76210;SDS011;65003;49.518;11.280;2023-10-08T03:46:19;6.10;;;3.20;;
76210;SDS011;65003;49.518;11.280;2023-10-08T03:48:45;4.83;;;3.00;;
76210;SDS011;65003;49.518;11.280;2023-10-08T03:51:12;6.53;;;3.77;;
76210;SDS011;65003;49.518;11.280;2023-10-08T03:53:39;5.73;;;3.03;;
76210;SDS011;65003;49.518;11.280;2023-10-08T03:56:11;7.37;;;3.17;;
76210;SDS011;65003;49.518;11.280;2023-10-08T03:58:37;7.53;;;3.57;;
76210;SDS011;65003;49.518;11.280;2023-10-08T04:01:05;5.27;;;3.07;;
76210;SDS011;65003;49.518;11.280;2023-10-08T04:03:35;5.50;;;3.37;;
76210;SDS011;65003;49.518;11.280;2023-10-08T04:06:07;7.13;;;3.50;;
76210;SDS011;65003;49.518;11.280;2023-10-08T04:08:40;5.30;;;2.80;;
76210;SDS011;65003;49.518;11.280;2023-10-08T04:11:09;5.83;;;3.20;;
76210;SDS011;65003;49.518;11.280;2023-10-08T04:13:37;4.03;;;2.93;;
76210;SDS011;65003;49.518;11.280;2023-10-08T04:16:03;4.90;;;3.00;;
76210;SDS011;65003;49.518;11.280;2023-10-08T04:18:30;6.03;;;3.00;;
76210;SDS011;65003;49.518;11.280;2023-10-08T04:20:56;6.27;;;3.13;;
76210;SDS011;65003;49.518;11.280;2023-10-08T04:23:25;11.03;;;3.23;;
76210;SDS011;65003;49.518;11.280;2023-10-08T04:25:51;6.57;;;2.90;;
76210;SDS011;65003;49.518;11.280;2023-10-08T04:28:20;8.70;;;3.50;;
76210;SDS011;65003;49.518;11.280;2023-10-08T04:30:47;7.43;;;2.67;;
76210;SDS011;65003;49.518;11.280;2023-10-08T04:33:14;5.40;;;2.90;;
76210;SDS011;65003;49.518;11.280;2023-10-08T04:35:41;7.43;;;3.70;;
76210;SDS011;65003;49.518;11.280;2023-10-08T04:38:13;7.23;;;3.30;;
76210;SDS011;65003;49.518;11.280;2023-10-08T04:40:40;6.50;;;3.33;;
76210;SDS011;65003;49.518;11.280;2023-10-08T04:43:07;5.90;;;2.83;;
76210;SDS011;65003;49.518;11.280;2023-10-08T04:45:34;6.00;;;3.47;;
76210;SDS011;65003;49.518;11.280;2023-10-08T04:48:00;8.37;;;4.00;;
76210;SDS011;65003;49.518;11.280;2023-10-08T04:50:27;7.47;;;3.00;;
76210;SDS011;65003;49.518;11.280;2023-10-08T04:52:53;7.33;;;3.30;;
76210;SDS011;65003;49.518;11.280;2023-10-08T04:55:24;6.27;;;3.00;;
76210;SDS011;65003;49.518;11.280;2023-10-08T04:57:50;7.00;;;3.40;;
76210;SDS011;65003;49.518;11.280;2023-10-08T05:00:17;5.60;;;3.33;;
76210;SDS011;65003;49.518;11.280;2023-10-08T05:02:44;7.00;;;3.33;;
76210;SDS011;65003;49.518;11.280;2023-10-08T05:05:19;10.17;;;3.93;;
76210;SDS011;65003;49.518;11.280;2023-10-08T05:07:49;6.33;;;3.33;;
76210;SDS011;65003;49.518;11.280;2023-10-08T05:10:30;6.73;;;3.57;;
76210;SDS011;65003;49.518;11.280;2023-10-08T05:12:56;9.00;;;5.13;;
76210;SDS011;65003;49.518;11.280;2023-10-08T05:15:42;6.03;;;3.50;;
76210;SDS011;65003;49.518;11.280;2023-10-08T05:18:08;4.67;;;3.70;;
76210;SDS011;65003;49.518;11.280;2023-10-08T05:20:39;7.90;;;3.87;;
76210;SDS011;65003;49.518;11.280;2023-10-08T05:23:07;5.47;;;3.43;;
76210;SDS011;65003;49.518;11.280;2023-10-08T05:25:33;7.10;;;3.60;;
76210;SDS011;65003;49.518;11.280;2023-10-08T05:28:01;7.37;;;3.43;;
76210;SDS011;65003;49.518;11.280;2023-10-08T05:30:28;6.73;;;3.90;;
76210;SDS011;65003;49.518;11.280;2023-10-08T05:32:55;6.70;;;4.03;;
76210;SDS011;65003;49.518;11.280;2023-10-08T05:35:27;6.40;;;3.63;;
76210;SDS011;65003;49.518;11.280;2023-10-08T05:38:13;5.43;;;3.40;;
76210;SDS011;65003;49.518;11.280;2023-10-08T05:40:42;7.97;;;4.20;;
76210;SDS011;65003;49.518;11.280;2023-10-08T05:43:09;6.43;;;2.97;;
76210;SDS011;65003;49.518;11.280;2023-10-08T05:45:36;6.75;;;3.30;;
76210;SDS011;65003;49.518;11.280;2023-10-08T05:48:03;7.37;;;4.00;;
76210;SDS011;65003;49.518;11.280;2023-10-08T05:50:33;10.20;;;4.87;;
76210;SDS011;65003;49.518;11.280;2023-10-08T05:53:05;7.33;;;4.50;;
76210;SDS011;65003;49.518;11.280;2023-10-08T05:55:31;10.90;;;5.13;;
76210;SDS011;65003;49.518;11.280;2023-10-08T05:58:02;7.73;;;4.10;;
76210;SDS011;65003;49.518;11.280;2023-10-08T06:00:33;7.10;;;3.50;;
76210;SDS011;65003;49.518;11.280;2023-10-08T06:03:06;6.57;;;3.40;;
76210;SDS011;65003;49.518;11.280;2023-10-08T06:05:35;7.23;;;2.93;;
76210;SDS011;65003;49.518;11.280;2023-10-08T06:08:02;6.90;;;3.63;;
76210;SDS011;65003;49.518;11.280;2023-10-08T06:10:43;7.03;;;4.90;;
76210;SDS011;65003;49.518;11.280;2023-10-08T06:13:12;10.20;;;4.80;;
76210;SDS011;65003;49.518;11.280;2023-10-08T06:15:40;7.20;;;4.10;;
76210;SDS011;65003;49.518;11.280;2023-10-08T06:18:15;7.70;;;4.60;;
76210;SDS011;65003;49.518;11.280;2023-10-08T06:20:42;9.17;;;3.83;;
76210;SDS011;65003;49.518;11.280;2023-10-08T06:23:10;9.30;;;3.97;;
76210;SDS011;65003;49.518;11.280;2023-10-08T06:25:38;9.33;;;4.00;;
76210;SDS011;65003;49.518;11.280;2023-10-08T06:28:12;7.20;;;4.03;;
76210;SDS011;65003;49.518;11.280;2023-10-08T06:30:39;8.73;;;4.60;;
76210;SDS011;65003;49.518;11.280;2023-10-08T06:33:05;6.60;;;4.23;;
76210;SDS011;65003;49.518;11.280;2023-10-08T06:35:31;14.77;;;11.23;;
76210;SDS011;65003;49.518;11.280;2023-10-08T06:37:58;18.43;;;14.40;;
76210;SDS011;65003;49.518;11.280;2023-10-08T06:40:26;16.57;;;13.50;;
76210;SDS011;65003;49.518;11.280;2023-10-08T06:42:56;14.67;;;11.53;;
76210;SDS011;65003;49.518;11.280;2023-10-08T06:45:23;14.00;;;12.30;;
76210;SDS011;65003;49.518;11.280;2023-10-08T06:47:49;6.27;;;3.67;;
76210;SDS011;65003;49.518;11.280;2023-10-08T06:50:16;9.87;;;4.17;;
76210;SDS011;65003;49.518;11.280;2023-10-08T06:52:42;5.43;;;3.63;;
76210;SDS011;65003;49.518;11.280;2023-10-08T06:55:09;8.67;;;5.17;;
76210;SDS011;65003;49.518;11.280;2023-10-08T06:57:37;8.27;;;5.97;;
76210;SDS011;65003;49.518;11.280;2023-10-08T07:00:04;10.53;;;4.97;;
76210;SDS011;65003;49.518;11.280;2023-10-08T07:02:34;10.37;;;5.27;;
76210;SDS011;65003;49.518;11.280;2023-10-08T07:05:00;11.37;;;6.43;;
76210;SDS011;65003;49.518;11.280;2023-10-08T07:07:27;257.67;;;107.30;;
76210;SDS011;65003;49.518;11.280;2023-10-08T07:09:54;263.03;;;129.83;;
76210;SDS011;65003;49.518;11.280;2023-10-08T07:12:20;76.33;;;54.40;;
76210;SDS011;65003;49.518;11.280;2023-10-08T07:14:47;16.60;;;9.03;;
76210;SDS011;65003;49.518;11.280;2023-10-08T07:17:13;15.27;;;8.23;;
76210;SDS011;65003;49.518;11.280;2023-10-08T07:19:40;13.70;;;7.57;;
76210;SDS011;65003;49.518;11.280;2023-10-08T07:22:07;8.47;;;4.67;;
76210;SDS011;65003;49.518;11.280;2023-10-08T07:24:34;9.63;;;6.20;;
76210;SDS011;65003;49.518;11.280;2023-10-08T07:27:01;15.37;;;6.53;;
76210;SDS011;65003;49.518;11.280;2023-10-08T07:29:27;12.70;;;5.53;;
76210;SDS011;65003;49.518;11.280;2023-10-08T07:31:54;10.77;;;6.20;;
76210;SDS011;65003;49.518;11.280;2023-10-08T07:34:21;11.03;;;6.37;;
76210;SDS011;65003;49.518;11.280;2023-10-08T07:36:52;10.37;;;6.47;;
76210;SDS011;65003;49.518;11.280;2023-10-08T07:39:19;7.30;;;3.97;;
76210;SDS011;65003;49.518;11.280;2023-10-08T07:41:51;10.97;;;4.27;;
76210;SDS011;65003;49.518;11.280;2023-10-08T07:44:17;6.80;;;4.37;;
76210;SDS011;65003;49.518;11.280;2023-10-08T07:46:44;8.53;;;4.37;;
76210;SDS011;65003;49.518;11.280;2023-10-08T07:49:11;8.90;;;4.20;;
76210;SDS011;65003;49.518;11.280;2023-10-08T07:51:38;8.77;;;3.90;;
76210;SDS011;65003;49.518;11.280;2023-10-08T07:54:04;7.73;;;3.43;;
76210;SDS011;65003;49.518;11.280;2023-10-08T07:56:31;7.43;;;3.90;;
76210;SDS011;65003;49.518;11.280;2023-10-08T07:58:57;5.80;;;3.77;;
76210;SDS011;65003;49.518;11.280;2023-10-08T08:01:24;8.63;;;3.90;;
76210;SDS011;65003;49.518;11.280;2023-10-08T08:03:51;8.03;;;4.47;;
76210;SDS011;65003;49.518;11.280;2023-10-08T08:06:17;6.20;;;3.87;;
76210;SDS011;65003;49.518;11.280;2023-10-08T08:08:44;7.37;;;3.47;;
76210;SDS011;65003;49.518;11.280;2023-10-08T08:11:11;7.10;;;4.00;;
76210;SDS011;65003;49.518;11.280;2023-10-08T08:13:39;6.63;;;3.50;;
76210;SDS011;65003;49.518;11.280;2023-10-08T08:16:05;6.77;;;3.73;;
76210;SDS011;65003;49.518;11.280;2023-10-08T08:18:36;7.10;;;3.10;;
76210;SDS011;65003;49.518;11.280;2023-10-08T08:21:02;6.53;;;2.80;;
76210;SDS011;65003;49.518;11.280;2023-10-08T08:23:29;5.70;;;3.00;;
76210;SDS011;65003;49.518;11.280;2023-10-08T08:25:55;7.47;;;3.37;;
76210;SDS011;65003;49.518;11.280;2023-10-08T08:28:37;5.27;;;3.07;;
76210;SDS011;65003;49.518;11.280;2023-10-08T08:31:04;6.43;;;3.07;;
76210;SDS011;65003;49.518;11.280;2023-10-08T08:33:30;5.10;;;3.20;;
76210;SDS011;65003;49.518;11.280;2023-10-08T08:35:58;6.90;;;3.10;;
76210;SDS011;65003;49.518;11.280;2023-10-08T08:38:24;5.47;;;3.20;;
76210;SDS011;65003;49.518;11.280;2023-10-08T08:40:51;5.23;;;3.23;;
76210;SDS011;65003;49.518;11.280;2023-10-08T08:43:17;6.20;;;3.40;;
76210;SDS011;65003;49.518;11.280;2023-10-08T08:45:44;9.27;;;3.73;;
76210;SDS011;65003;49.518;11.280;2023-10-08T08:48:10;7.33;;;3.17;;
76210;SDS011;65003;49.518;11.280;2023-10-08T08:50:37;6.00;;;3.17;;
76210;SDS011;65003;49.518;11.280;2023-10-08T08:53:04;5.77;;;3.13;;
76210;SDS011;65003;49.518;11.280;2023-10-08T08:55:31;8.60;;;3.60;;
76210;SDS011;65003;49.518;11.280;2023-10-08T08:57:57;6.77;;;2.93;;
76210;SDS011;65003;49.518;11.280;2023-10-08T09:00:23;6.77;;;2.90;;
76210;SDS011;65003;49.518;11.280;2023-10-08T09:02:50;5.60;;;3.43;;
76210;SDS011;65003;49.518;11.280;2023-10-08T09:05:17;8.40;;;2.87;;
76210;SDS011;65003;49.518;11.280;2023-10-08T09:07:54;6.83;;;2.93;;
76210;SDS011;65003;49.518;11.280;2023-10-08T09:10:22;6.77;;;3.00;;
76210;SDS011;65003;49.518;11.280;2023-10-08T09:12:47;5.00;;;3.00;;
76210;SDS011;65003;49.518;11.280;2023-10-08T09:15:14;9.00;;;3.33;;
76210;SDS011;65003;49.518;11.280;2023-10-08T09:17:40;8.37;;;3.50;;
76210;SDS011;65003;49.518;11.280;2023-10-08T09:20:07;8.30;;;3.97;;
76210;SDS011;65003;49.518;11.280;2023-10-08T09:22:34;6.53;;;3.70;;
76210;SDS011;65003;49.518;11.280;2023-10-08T09:25:01;8.77;;;3.57;;
76210;SDS011;65003;49.518;11.280;2023-10-08T09:27:27;6.03;;;3.70;;
76210;SDS011;65003;49.518;11.280;2023-10-08T09:29:55;7.33;;;3.73;;
76210;SDS011;65003;49.518;11.280;2023-10-08T09:32:21;8.97;;;3.80;;
76210;SDS011;65003;49.518;11.280;2023-10-08T09:34:49;5.67;;;3.20;;
76210;SDS011;65003;49.518;11.280;2023-10-08T09:37:16;7.03;;;3.10;;
76210;SDS011;65003;49.518;11.280;2023-10-08T09:39:42;5.80;;;3.30;;
76210;SDS011;65003;49.518;11.280;2023-10-08T09:42:09;8.50;;;3.60;;
76210;SDS011;65003;49.518;11.280;2023-10-08T09:44:35;7.47;;;3.53;;
76210;SDS011;65003;49.518;11.280;2023-10-08T09:47:03;7.00;;;3.50;;
76210;SDS011;65003;49.518;11.280;2023-10-08T09:49:30;6.37;;;3.17;;
76210;SDS011;65003;49.518;11.280;2023-10-08T09:51:56;6.87;;;3.77;;
76210;SDS011;65003;49.518;11.280;2023-10-08T09:54:27;7.13;;;3.47;;
76210;SDS011;65003;49.518;11.280;2023-10-08T09:56:50;6.97;;;2.43;;
76210;SDS011;65003;49.518;11.280;2023-10-08T09:59:16;7.90;;;5.17;;
76210;SDS011;65003;49.518;11.280;2023-10-08T10:01:43;5.37;;;3.53;;
76210;SDS011;65003;49.518;11.280;2023-10-08T10:04:10;7.23;;;3.17;;
76210;SDS011;65003;49.518;11.280;2023-10-08T10:06:36;6.43;;;3.30;;
76210;SDS011;65003;49.518;11.280;2023-10-08T10:09:04;6.13;;;3.40;;
76210;SDS011;65003;49.518;11.280;2023-10-08T10:11:29;8.53;;;3.63;;
76210;SDS011;65003;49.518;11.280;2023-10-08T10:13:58;7.57;;;4.07;;
76210;SDS011;65003;49.518;11.280;2023-10-08T10:16:24;8.20;;;3.20;;
76210;SDS011;65003;49.518;11.280;2023-10-08T10:18:50;8.17;;;3.67;;
76210;SDS011;65003;49.518;11.280;2023-10-08T10:21:24;8.33;;;3.57;;
76210;SDS011;65003;49.518;11.280;2023-10-08T10:23:52;7.47;;;4.23;;
76210;SDS011;65003;49.518;11.280;2023-10-08T10:26:24;11.30;;;4.00;;
76210;SDS011;65003;49.518;11.280;2023-10-08T10:31:31;9.13;;;3.87;;
76210;SDS011;65003;49.518;11.280;2023-10-08T10:33:56;7.07;;;3.40;;
76210;SDS011;65003;49.518;11.280;2023-10-08T10:36:23;7.73;;;3.90;;
76210;SDS011;65003;49.518;11.280;2023-10-08T10:38:50;6.50;;;3.93;;
76210;SDS011;65003;49.518;11.280;2023-10-08T10:41:16;7.50;;;4.03;;
76210;SDS011;65003;49.518;11.280;2023-10-08T10:43:43;11.80;;;3.97;;
76210;SDS011;65003;49.518;11.280;2023-10-08T10:46:09;6.60;;;4.07;;
76210;SDS011;65003;49.518;11.280;2023-10-08T10:48:42;7.50;;;3.83;;
76210;SDS011;65003;49.518;11.280;2023-10-08T10:51:09;8.77;;;4.23;;
76210;SDS011;65003;49.518;11.280;2023-10-08T10:53:37;9.70;;;4.27;;
76210;SDS011;65003;49.518;11.280;2023-10-08T10:56:13;6.00;;;4.07;;
76210;SDS011;65003;49.518;11.280;2023-10-08T10:58:41;8.90;;;4.40;;
76210;SDS011;65003;49.518;11.280;2023-10-08T11:01:06;10.87;;;4.13;;
76210;SDS011;65003;49.518;11.280;2023-10-08T11:03:33;8.33;;;4.10;;
76210;SDS011;65003;49.518;11.280;2023-10-08T11:06:00;8.37;;;3.97;;
76210;SDS011;65003;49.518;11.280;2023-10-08T11:08:26;6.30;;;3.63;;
76210;SDS011;65003;49.518;11.280;2023-10-08T11:10:54;8.20;;;4.90;;
76210;SDS011;65003;49.518;11.280;2023-10-08T11:13:21;10.63;;;5.47;;
76210;SDS011;65003;49.518;11.280;2023-10-08T11:15:48;9.70;;;4.13;;
76210;SDS011;65003;49.518;11.280;2023-10-08T11:18:16;9.20;;;4.20;;
76210;SDS011;65003;49.518;11.280;2023-10-08T11:20:42;7.63;;;4.23;;
76210;SDS011;65003;49.518;11.280;2023-10-08T11:23:11;8.50;;;4.20;;
76210;SDS011;65003;49.518;11.280;2023-10-08T11:28:20;8.30;;;4.60;;
76210;SDS011;65003;49.518;11.280;2023-10-08T11:30:47;11.20;;;6.30;;
76210;SDS011;65003;49.518;11.280;2023-10-08T11:33:14;8.90;;;5.80;;
76210;SDS011;65003;49.518;11.280;2023-10-08T11:38:37;10.00;;;5.40;;
76210;SDS011;65003;49.518;11.280;2023-10-08T11:40:55;8.77;;;4.30;;
76210;SDS011;65003;49.518;11.280;2023-10-08T11:43:23;7.67;;;4.33;;
76210;SDS011;65003;49.518;11.280;2023-10-08T11:45:49;9.67;;;4.10;;
76210;SDS011;65003;49.518;11.280;2023-10-08T11:48:16;7.13;;;4.17;;
76210;SDS011;65003;49.518;11.280;2023-10-08T11:50:43;11.63;;;4.60;;
76210;SDS011;65003;49.518;11.280;2023-10-08T11:53:10;6.33;;;4.47;;
76210;SDS011;65003;49.518;11.280;2023-10-08T11:55:36;8.93;;;4.40;;
76210;SDS011;65003;49.518;11.280;2023-10-08T11:58:05;6.67;;;4.30;;
76210;SDS011;65003;49.518;11.280;2023-10-08T12:00:31;7.47;;;5.47;;
76210;SDS011;65003;49.518;11.280;2023-10-08T12:02:58;8.03;;;5.60;;
76210;SDS011;65003;49.518;11.280;2023-10-08T12:05:24;14.23;;;9.53;;
76210;SDS011;65003;49.518;11.280;2023-10-08T12:07:51;10.37;;;4.97;;
76210;SDS011;65003;49.518;11.280;2023-10-08T12:10:19;9.30;;;4.63;;
76210;SDS011;65003;49.518;11.280;2023-10-08T12:12:50;6.87;;;4.80;;
76210;SDS011;65003;49.518;11.280;2023-10-08T12:15:18;7.63;;;3.40;;
76210;SDS011;65003;49.518;11.280;2023-10-08T12:17:46;9.97;;;3.67;;
76210;SDS011;65003;49.518;11.280;2023-10-08T12:20:12;6.77;;;4.60;;
76210;SDS011;65003;49.518;11.280;2023-10-08T12:22:55;7.27;;;4.43;;
76210;SDS011;65003;49.518;11.280;2023-10-08T12:25:21;11.17;;;5.03;;
76210;SDS011;65003;49.518;11.280;2023-10-08T12:27:47;6.07;;;3.60;;
76210;SDS011;65003;49.518;11.280;2023-10-08T12:30:14;8.97;;;5.17;;
76210;SDS011;65003;49.518;11.280;2023-10-08T12:32:40;7.77;;;4.60;;
76210;SDS011;65003;49.518;11.280;2023-10-08T12:35:08;7.60;;;4.27;;
76210;SDS011;65003;49.518;11.280;2023-10-08T12:37:35;7.93;;;4.10;;
76210;SDS011;65003;49.518;11.280;2023-10-08T12:40:02;8.03;;;3.63;;
76210;SDS011;65003;49.518;11.280;2023-10-08T12:42:29;10.13;;;5.57;;
76210;SDS011;65003;49.518;11.280;2023-10-08T12:44:56;8.90;;;3.83;;
76210;SDS011;65003;49.518;11.280;2023-10-08T12:47:22;7.87;;;3.27;;
76210;SDS011;65003;49.518;11.280;2023-10-08T12:49:49;9.80;;;4.37;;
76210;SDS011;65003;49.518;11.280;2023-10-08T12:52:16;7.13;;;4.10;;
76210;SDS011;65003;49.518;11.280;2023-10-08T12:54:42;12.77;;;4.67;;
76210;SDS011;65003;49.518;11.280;2023-10-08T12:57:09;8.57;;;3.87;;
76210;SDS011;65003;49.518;11.280;2023-10-08T12:59:35;8.80;;;4.57;;
76210;SDS011;65003;49.518;11.280;2023-10-08T13:02:02;10.13;;;3.87;;
76210;SDS011;65003;49.518;11.280;2023-10-08T13:04:29;8.23;;;4.43;;
76210;SDS011;65003;49.518;11.280;2023-10-08T13:06:56;6.10;;;3.43;;
76210;SDS011;65003;49.518;11.280;2023-10-08T13:09:23;10.67;;;4.47;;
76210;SDS011;65003;49.518;11.280;2023-10-08T13:11:49;7.47;;;4.03;;
76210;SDS011;65003;49.518;11.280;2023-10-08T13:14:16;9.00;;;4.50;;
76210;SDS011;65003;49.518;11.280;2023-10-08T13:16:42;7.87;;;4.63;;
76210;SDS011;65003;49.518;11.280;2023-10-08T13:19:09;12.00;;;4.83;;
76210;SDS011;65003;49.518;11.280;2023-10-08T13:21:36;7.62;;;4.03;;
76210;SDS011;65003;49.518;11.280;2023-10-08T13:24:03;11.07;;;5.20;;
76210;SDS011;65003;49.518;11.280;2023-10-08T13:26:30;10.20;;;4.90;;
76210;SDS011;65003;49.518;11.280;2023-10-08T13:28:58;9.03;;;4.90;;
76210;SDS011;65003;49.518;11.280;2023-10-08T13:31:24;10.60;;;4.60;;
76210;SDS011;65003;49.518;11.280;2023-10-08T13:33:51;31.17;;;17.70;;
76210;SDS011;65003;49.518;11.280;2023-10-08T13:36:17;20.77;;;10.77;;
76210;SDS011;65003;49.518;11.280;2023-10-08T13:38:44;45.70;;;25.90;;
76210;SDS011;65003;49.518;11.280;2023-10-08T13:41:11;10.93;;;6.37;;
76210;SDS011;65003;49.518;11.280;2023-10-08T13:43:41;11.07;;;5.97;;
76210;SDS011;65003;49.518;11.280;2023-10-08T13:46:08;11.83;;;5.10;;
76210;SDS011;65003;49.518;11.280;2023-10-08T13:48:36;8.95;;;4.45;;
76210;SDS011;65003;49.518;11.280;2023-10-08T13:51:03;9.30;;;6.10;;
76210;SDS011;65003;49.518;11.280;2023-10-08T13:53:30;10.23;;;4.60;;
76210;SDS011;65003;49.518;11.280;2023-10-08T13:55:57;8.00;;;5.00;;
76210;SDS011;65003;49.518;11.280;2023-10-08T13:58:23;9.20;;;5.87;;
76210;SDS011;65003;49.518;11.280;2023-10-08T14:00:50;9.40;;;4.60;;
76210;SDS011;65003;49.518;11.280;2023-10-08T14:03:17;10.17;;;4.53;;
76210;SDS011;65003;49.518;11.280;2023-10-08T14:05:43;9.60;;;4.83;;
76210;SDS011;65003;49.518;11.280;2023-10-08T14:08:10;5.83;;;4.20;;
76210;SDS011;65003;49.518;11.280;2023-10-08T14:10:36;9.47;;;4.40;;
76210;SDS011;65003;49.518;11.280;2023-10-08T14:13:03;8.10;;;4.23;;
76210;SDS011;65003;49.518;11.280;2023-10-08T14:15:30;6.77;;;3.73;;
76210;SDS011;65003;49.518;11.280;2023-10-08T14:17:56;20.30;;;14.40;;
76210;SDS011;65003;49.518;11.280;2023-10-08T14:20:23;7.37;;;4.77;;
76210;SDS011;65003;49.518;11.280;2023-10-08T14:22:50;15.53;;;9.33;;
76210;SDS011;65003;49.518;11.280;2023-10-08T14:25:16;9.80;;;6.20;;
76210;SDS011;65003;49.518;11.280;2023-10-08T14:27:43;7.07;;;3.70;;
76210;SDS011;65003;49.518;11.280;2023-10-08T14:30:09;5.20;;;3.83;;
76210;SDS011;65003;49.518;11.280;2023-10-08T14:32:37;4.13;;;2.63;;
76210;SDS011;65003;49.518;11.280;2023-10-08T14:35:04;4.93;;;2.80;;
76210;SDS011;65003;49.518;11.280;2023-10-08T14:37:36;4.50;;;3.33;;
76210;SDS011;65003;49.518;11.280;2023-10-08T14:40:09;4.60;;;2.53;;
76210;SDS011;65003;49.518;11.280;2023-10-08T14:42:41;4.73;;;2.70;;